createdAt,value
2017-11-07T00:00:15.892Z,21.73
2017-11-07T00:02:42.358Z,24.57
2017-11-07T00:05:08.772Z,22.90
2017-11-07T00:07:35.209Z,22.10
2017-11-07T00:10:01.668Z,20.20
2017-11-07T00:12:28.116Z,19.23
2017-11-07T00:14:55.249Z,20.10
2017-11-07T00:17:21.581Z,18.27
2017-11-07T00:19:48.016Z,19.30
2017-11-07T00:22:14.382Z,18.70
2017-11-07T00:24:40.819Z,17.77
2017-11-07T00:27:07.220Z,18.60
2017-11-07T00:29:33.653Z,19.07
2017-11-07T00:32:00.906Z,18.63
2017-11-07T00:34:27.341Z,18.67
2017-11-07T00:36:53.777Z,17.73
2017-11-07T00:39:20.108Z,17.77
2017-11-07T00:41:46.543Z,17.03
2017-11-07T00:44:12.875Z,17.33
2017-11-07T00:46:39.207Z,19.17
2017-11-07T00:49:06.554Z,17.03
2017-11-07T00:51:32.999Z,18.40
2017-11-07T00:53:59.433Z,16.97
2017-11-07T00:56:25.765Z,20.47
2017-11-07T00:58:52.097Z,17.73
2017-11-07T01:01:18.538Z,17.93
2017-11-07T01:03:44.967Z,16.40
2017-11-07T01:06:12.118Z,17.70
2017-11-07T01:08:38.553Z,17.57
2017-11-07T01:11:04.993Z,17.10
2017-11-07T01:13:31.354Z,17.90
2017-11-07T01:15:57.757Z,18.33
2017-11-07T01:18:24.106Z,17.53
2017-11-07T01:20:50.525Z,17.77
2017-11-07T01:23:17.777Z,18.00
2017-11-07T01:25:44.128Z,18.30
2017-11-07T01:28:10.477Z,17.63
2017-11-07T01:30:36.809Z,18.90
2017-11-07T01:33:03.207Z,17.90
2017-11-07T01:35:29.604Z,18.63
2017-11-07T01:37:56.017Z,17.50
2017-11-07T01:40:23.125Z,19.70
2017-11-07T01:42:49.494Z,20.17
2017-11-07T01:45:15.826Z,17.47
2017-11-07T01:47:43.309Z,17.73
2017-11-07T01:50:09.758Z,17.50
2017-11-07T01:52:36.230Z,17.60
2017-11-07T01:55:02.656Z,18.67
2017-11-07T01:57:29.098Z,18.80
2017-11-07T01:59:55.536Z,18.10
2017-11-07T02:02:21.970Z,18.10
2017-11-07T02:04:48.483Z,17.43
2017-11-07T02:07:14.935Z,17.30
2017-11-07T02:09:41.375Z,18.40
2017-11-07T02:12:07.808Z,17.30
2017-11-07T02:14:35.054Z,17.97
2017-11-07T02:17:01.427Z,17.97
2017-11-07T02:19:27.932Z,18.00
2017-11-07T02:21:54.358Z,17.63
2017-11-07T02:24:20.808Z,17.23
2017-11-07T02:26:47.236Z,17.57
2017-11-07T02:29:13.661Z,17.93
2017-11-07T02:31:40.916Z,17.97
2017-11-07T02:34:07.352Z,18.37
2017-11-07T02:36:33.810Z,21.40
2017-11-07T02:39:00.220Z,22.27
2017-11-07T02:41:26.553Z,21.30
2017-11-07T02:43:52.880Z,20.30
2017-11-07T02:46:19.251Z,21.10
2017-11-07T02:48:46.575Z,20.80
2017-11-07T02:51:13.016Z,20.07
2017-11-07T02:53:39.341Z,20.93
2017-11-07T02:56:05.784Z,18.63
2017-11-07T02:58:32.219Z,21.50
2017-11-07T03:00:58.644Z,21.43
2017-11-07T03:03:25.081Z,20.30
2017-11-07T03:05:52.128Z,19.67
2017-11-07T03:08:18.562Z,18.67
2017-11-07T03:10:44.998Z,20.53
2017-11-07T03:13:11.442Z,19.60
2017-11-07T03:15:37.867Z,19.57
2017-11-07T03:18:04.302Z,17.83
2017-11-07T03:20:30.750Z,19.40
2017-11-07T03:22:57.887Z,19.53
2017-11-07T03:25:24.324Z,20.33
2017-11-07T03:27:50.690Z,20.43
2017-11-07T03:30:17.089Z,20.27
2017-11-07T03:32:43.523Z,18.43
2017-11-07T03:35:09.961Z,19.57
2017-11-07T03:37:36.401Z,18.60
2017-11-07T03:40:03.658Z,17.70
2017-11-07T03:42:30.082Z,18.40
2017-11-07T03:44:56.524Z,18.67
2017-11-07T03:47:22.959Z,18.47
2017-11-07T03:49:49.406Z,20.37
2017-11-07T03:52:15.821Z,19.67
2017-11-07T03:54:42.262Z,18.87
2017-11-07T03:57:09.508Z,19.23
2017-11-07T03:59:35.945Z,19.60
2017-11-07T04:02:02.344Z,18.73
2017-11-07T04:04:28.821Z,19.00
2017-11-07T04:06:55.207Z,19.40
2017-11-07T04:09:21.683Z,18.43
2017-11-07T04:11:48.116Z,19.23
2017-11-07T04:14:15.267Z,19.40
2017-11-07T04:16:41.675Z,20.23
2017-11-07T04:19:08.137Z,19.20
2017-11-07T04:21:34.571Z,20.30
2017-11-07T04:24:00.974Z,19.00
2017-11-07T04:26:27.339Z,20.03
2017-11-07T04:28:53.877Z,19.53
2017-11-07T04:31:20.931Z,19.97
2017-11-07T04:33:47.369Z,20.70
2017-11-07T04:36:13.794Z,18.77
2017-11-07T04:38:40.239Z,18.43
2017-11-07T04:41:06.663Z,18.67
2017-11-07T04:43:33.098Z,18.93
2017-11-07T04:45:59.560Z,19.00
2017-11-07T04:48:26.684Z,20.13
2017-11-07T04:50:53.055Z,19.40
2017-11-07T04:53:19.451Z,19.17
2017-11-07T04:55:45.897Z,20.00
2017-11-07T04:58:12.323Z,21.07
2017-11-07T05:00:38.654Z,18.83
2017-11-07T05:03:05.097Z,19.97
2017-11-07T05:05:31.522Z,20.57
2017-11-07T05:07:57.894Z,21.27
2017-11-07T05:10:24.287Z,21.10
2017-11-07T05:12:50.824Z,20.23
2017-11-07T05:15:17.261Z,19.80
2017-11-07T05:17:43.705Z,19.30
2017-11-07T05:20:10.129Z,19.80
2017-11-07T05:22:37.257Z,21.03
2017-11-07T05:25:03.715Z,21.80
2017-11-07T05:27:30.159Z,20.30
2017-11-07T05:29:56.593Z,20.47
2017-11-07T05:32:23.020Z,20.67
2017-11-07T05:34:49.422Z,21.87
2017-11-07T05:37:15.893Z,22.10
2017-11-07T05:39:43.110Z,21.10
2017-11-07T05:42:09.597Z,22.67
2017-11-07T05:44:36.024Z,22.70
2017-11-07T05:47:02.455Z,22.57
2017-11-07T05:49:28.883Z,22.53
2017-11-07T05:51:55.251Z,20.87
2017-11-07T05:54:21.653Z,19.40
2017-11-07T05:56:48.903Z,18.20
2017-11-07T05:59:15.340Z,21.00
2017-11-07T06:01:41.755Z,21.77
2017-11-07T06:04:08.104Z,20.80
2017-11-07T06:06:34.540Z,43.47
2017-11-07T06:09:00.973Z,57.27
2017-11-07T06:11:27.417Z,46.00
2017-11-07T06:13:53.846Z,36.37
2017-11-07T06:16:20.175Z,39.70
2017-11-07T06:18:46.546Z,30.60
2017-11-07T06:21:13.010Z,25.67
2017-11-07T06:23:39.409Z,23.53
2017-11-07T06:26:05.812Z,21.10
2017-11-07T06:28:32.653Z,23.80
2017-11-07T06:30:59.025Z,32.23
2017-11-07T06:33:25.533Z,35.60
2017-11-07T06:35:52.005Z,25.40
2017-11-07T06:38:18.420Z,18.20
2017-11-07T06:40:44.828Z,18.20
2017-11-07T06:43:11.263Z,16.30
2017-11-07T06:45:37.697Z,17.87
2017-11-07T06:48:04.132Z,16.93
2017-11-07T06:50:30.568Z,17.40
2017-11-07T06:52:57.010Z,16.97
2017-11-07T06:55:23.461Z,18.20
2017-11-07T06:57:49.809Z,19.07
2017-11-07T07:00:16.417Z,17.80
2017-11-07T07:02:42.865Z,20.43
2017-11-07T07:05:09.389Z,18.30
2017-11-07T07:07:35.823Z,17.60
2017-11-07T07:10:02.249Z,17.60
2017-11-07T07:12:28.692Z,18.00
2017-11-07T07:14:55.756Z,20.17
2017-11-07T07:17:22.196Z,23.27
2017-11-07T07:19:48.713Z,31.57
2017-11-07T07:22:15.139Z,29.40
2017-11-07T07:24:41.685Z,24.20
2017-11-07T07:27:08.077Z,25.23
2017-11-07T07:29:35.179Z,24.33
2017-11-07T07:32:01.697Z,27.83
2017-11-07T07:34:28.528Z,23.67
2017-11-07T07:36:55.309Z,25.77
2017-11-07T07:39:22.140Z,28.20
2017-11-07T07:41:48.603Z,34.70
2017-11-07T07:44:15.104Z,33.77
2017-11-07T07:46:42.875Z,36.30
2017-11-07T07:49:09.403Z,29.40
2017-11-07T07:51:35.846Z,27.20
2017-11-07T07:54:02.384Z,23.77
2017-11-07T07:56:28.740Z,21.57
2017-11-07T07:58:55.450Z,34.37
2017-11-07T08:01:22.314Z,20.87
2017-11-07T08:03:49.142Z,18.50
2017-11-07T08:06:15.884Z,18.63
2017-11-07T08:08:42.567Z,19.40
2017-11-07T08:11:09.043Z,18.07
2017-11-07T08:13:35.649Z,17.57
2017-11-07T08:16:02.132Z,17.60
2017-11-07T08:18:29.311Z,18.50
2017-11-07T08:20:55.752Z,20.33
2017-11-07T08:23:22.241Z,21.70
2017-11-07T08:25:48.690Z,20.20
2017-11-07T08:28:15.304Z,17.53
2017-11-07T08:30:41.967Z,18.77
2017-11-07T08:33:08.666Z,19.97
2017-11-07T08:35:35.144Z,20.43
2017-11-07T08:38:01.906Z,22.00
2017-11-07T08:40:28.431Z,21.27
2017-11-07T08:42:55.070Z,20.17
2017-11-07T08:45:21.808Z,22.67
2017-11-07T08:47:48.353Z,25.50
2017-11-07T08:50:14.843Z,24.13
2017-11-07T08:52:41.425Z,24.27
2017-11-07T08:55:08.266Z,25.50
2017-11-07T08:57:34.700Z,23.97
2017-11-07T09:00:01.134Z,24.20
2017-11-07T09:02:27.531Z,24.20
2017-11-07T09:04:54.004Z,23.50
2017-11-07T09:07:20.440Z,25.10
2017-11-07T09:09:47.489Z,24.87
2017-11-07T09:12:16.220Z,25.87
2017-11-07T09:14:42.712Z,23.57
2017-11-07T09:17:09.183Z,24.70
2017-11-07T09:19:35.582Z,24.83
2017-11-07T09:22:02.127Z,25.90
2017-11-07T09:24:28.734Z,25.97
2017-11-07T09:26:55.225Z,34.57
2017-11-07T09:29:21.729Z,29.33
2017-11-07T09:31:48.577Z,26.20
2017-11-07T09:34:15.109Z,26.80
2017-11-07T09:36:41.606Z,29.13
2017-11-07T09:39:08.492Z,28.87
2017-11-07T09:41:34.991Z,30.53
2017-11-07T09:44:01.876Z,30.83
2017-11-07T09:46:28.513Z,29.43
2017-11-07T09:48:55.051Z,35.93
2017-11-07T09:51:21.487Z,35.40
2017-11-07T09:53:48.490Z,29.20
2017-11-07T09:56:15.072Z,29.30
2017-11-07T09:58:41.609Z,33.40
2017-11-07T10:01:08.351Z,31.70
2017-11-07T10:03:34.785Z,29.30
2017-11-07T10:06:01.325Z,30.37
2017-11-07T10:08:27.962Z,28.70
2017-11-07T10:10:54.501Z,26.27
2017-11-07T10:13:21.036Z,31.00
2017-11-07T10:15:47.574Z,32.83
2017-11-07T10:18:14.111Z,28.60
2017-11-07T10:20:40.585Z,21.33
2017-11-07T10:23:07.179Z,23.37
2017-11-07T10:25:33.725Z,21.80
2017-11-07T10:28:00.156Z,21.93
2017-11-07T10:30:27.383Z,22.50
2017-11-07T10:32:53.844Z,21.60
2017-11-07T10:35:20.381Z,21.90
2017-11-07T10:37:47.289Z,22.07
2017-11-07T10:40:13.763Z,22.60
2017-11-07T10:42:40.197Z,22.03
2017-11-07T10:45:06.839Z,21.63
2017-11-07T10:47:33.399Z,23.73
2017-11-07T10:49:59.895Z,24.47
2017-11-07T10:52:26.814Z,22.10
2017-11-07T10:54:53.395Z,19.83
2017-11-07T10:57:19.933Z,25.70
2017-11-07T10:59:46.673Z,20.80
2017-11-07T11:02:13.127Z,152.47
2017-11-07T11:04:39.749Z,20.00
2017-11-07T11:07:06.183Z,20.00
2017-11-07T11:09:33.027Z,21.97
2017-11-07T11:11:59.418Z,22.23
2017-11-07T11:14:25.855Z,25.00
2017-11-07T11:16:52.330Z,22.07
2017-11-07T11:19:19.283Z,25.40
2017-11-07T11:21:45.817Z,25.60
2017-11-07T11:24:12.310Z,25.10
2017-11-07T11:26:39.402Z,22.60
2017-11-07T11:29:05.927Z,23.27
2017-11-07T11:31:33.294Z,23.30
2017-11-07T11:34:00.450Z,25.03
2017-11-07T11:36:26.882Z,23.03
2017-11-07T11:38:53.420Z,22.20
2017-11-07T11:41:20.264Z,20.47
2017-11-07T11:43:46.869Z,20.33
2017-11-07T11:46:13.337Z,20.43
2017-11-07T11:48:40.081Z,19.63
2017-11-07T11:51:06.617Z,26.97
2017-11-07T11:53:33.119Z,20.37
2017-11-07T11:55:59.692Z,22.40
2017-11-07T11:58:26.123Z,20.33
2017-11-07T12:00:52.661Z,21.73
2017-11-07T12:03:19.644Z,23.60
2017-11-07T12:05:46.247Z,20.90
2017-11-07T12:08:12.755Z,19.13
2017-11-07T12:10:39.730Z,21.03
2017-11-07T12:13:06.203Z,19.23
2017-11-07T12:15:32.701Z,19.50
2017-11-07T12:17:59.497Z,19.23
2017-11-07T12:20:26.087Z,23.10
2017-11-07T12:22:52.619Z,20.10
2017-11-07T12:25:19.470Z,17.33
2017-11-07T12:27:46.001Z,18.80
2017-11-07T12:30:12.537Z,20.60
2017-11-07T12:32:39.333Z,19.67
2017-11-07T12:35:05.918Z,18.83
2017-11-07T12:37:32.456Z,16.37
2017-11-07T12:39:59.198Z,19.83
2017-11-07T12:42:25.736Z,19.40
2017-11-07T12:44:52.272Z,16.73
2017-11-07T12:47:19.218Z,18.83
2017-11-07T12:49:45.961Z,17.73
2017-11-07T12:52:12.498Z,19.80
2017-11-07T12:54:39.136Z,16.90
2017-11-07T12:57:05.779Z,17.80
2017-11-07T12:59:32.234Z,17.10
2017-11-07T13:01:58.850Z,17.23
2017-11-07T13:04:25.388Z,17.47
2017-11-07T13:06:51.887Z,18.97
2017-11-07T13:09:19.076Z,19.37
2017-11-07T13:11:45.716Z,18.07
2017-11-07T13:14:12.171Z,20.43
2017-11-07T13:16:39.097Z,17.70
2017-11-07T13:19:05.634Z,17.23
2017-11-07T13:21:32.170Z,23.20
2017-11-07T13:23:58.809Z,17.73
2017-11-07T13:26:25.333Z,16.93
2017-11-07T13:28:51.785Z,22.40
2017-11-07T13:31:18.894Z,22.57
2017-11-07T13:33:45.473Z,24.20
2017-11-07T13:36:11.967Z,24.07
2017-11-07T13:38:38.848Z,21.90
2017-11-07T13:41:05.353Z,24.60
2017-11-07T13:43:31.926Z,26.17
2017-11-07T13:45:58.771Z,29.40
2017-11-07T13:48:25.411Z,31.70
2017-11-07T13:50:51.937Z,28.97
2017-11-07T13:53:19.000Z,28.30
2017-11-07T13:55:45.738Z,25.93
2017-11-07T13:58:12.166Z,41.10
2017-11-07T14:00:39.017Z,25.53
2017-11-07T14:03:05.523Z,26.53
2017-11-07T14:05:32.094Z,26.80
2017-11-07T14:07:58.661Z,26.90
2017-11-07T14:10:25.130Z,27.27
2017-11-07T14:12:51.572Z,25.47
2017-11-07T14:15:18.443Z,27.57
2017-11-07T14:17:44.879Z,27.93
2017-11-07T14:20:11.421Z,27.77
2017-11-07T14:22:38.118Z,27.00
2017-11-07T14:25:04.695Z,27.47
2017-11-07T14:27:31.238Z,27.23
2017-11-07T14:29:57.974Z,28.50
2017-11-07T14:32:24.614Z,29.23
2017-11-07T14:34:51.254Z,30.73
2017-11-07T14:37:17.893Z,29.60
2017-11-07T14:39:44.503Z,31.20
2017-11-07T14:42:11.231Z,30.83
2017-11-07T14:44:38.323Z,32.07
2017-11-07T14:47:05.167Z,30.80
2017-11-07T14:49:31.705Z,33.30
2017-11-07T14:51:58.174Z,32.50
2017-11-07T14:54:24.739Z,31.27
2017-11-07T14:56:51.492Z,31.43
2017-11-07T14:59:18.269Z,33.00
2017-11-07T15:01:45.040Z,32.67
2017-11-07T15:04:11.648Z,32.63
2017-11-07T15:06:38.487Z,31.03
2017-11-07T15:09:05.025Z,30.80
2017-11-07T15:11:31.461Z,31.77
2017-11-07T15:13:58.408Z,32.63
2017-11-07T15:18:56.291Z,31.60
2017-11-07T15:21:22.762Z,34.27
2017-11-07T15:23:49.259Z,35.67
2017-11-07T15:26:15.695Z,35.67
2017-11-07T15:28:42.641Z,35.60
2017-11-07T15:31:09.181Z,33.63
2017-11-07T15:33:35.653Z,34.47
2017-11-07T15:36:02.150Z,33.27
2017-11-07T15:38:28.952Z,35.87
2017-11-07T15:40:55.326Z,35.13
2017-11-07T15:43:21.827Z,33.60
2017-11-07T15:45:48.298Z,35.73
2017-11-07T15:48:15.042Z,36.10
2017-11-07T15:50:41.474Z,37.00
2017-11-07T15:53:07.870Z,38.80
2017-11-07T15:55:34.411Z,35.53
2017-11-07T15:58:00.839Z,38.13
2017-11-07T16:00:27.269Z,38.70
2017-11-07T16:02:53.711Z,39.17
2017-11-07T16:05:20.402Z,37.77
2017-11-07T16:07:46.887Z,38.33
2017-11-07T16:10:13.365Z,37.50
2017-11-07T16:12:39.797Z,36.63
2017-11-07T16:15:06.232Z,38.73
2017-11-07T16:20:05.445Z,40.83
2017-11-07T16:22:31.947Z,38.77
2017-11-07T16:24:58.388Z,38.50
2017-11-07T16:27:24.815Z,38.90
2017-11-07T16:29:51.259Z,38.00
2017-11-07T16:32:17.789Z,38.87
2017-11-07T16:34:44.239Z,38.50
2017-11-07T16:37:10.758Z,41.10
2017-11-07T16:39:37.154Z,42.47
2017-11-07T16:42:03.655Z,39.90
2017-11-07T16:44:30.132Z,39.50
2017-11-07T16:46:56.563Z,42.80
2017-11-07T16:49:23.034Z,40.97
2017-11-07T16:51:49.588Z,43.57
2017-11-07T16:54:16.146Z,41.83
2017-11-07T16:56:42.737Z,40.33
2017-11-07T16:59:09.237Z,41.00
2017-11-07T17:01:35.730Z,41.30
2017-11-07T17:04:02.158Z,41.40
2017-11-07T17:06:28.803Z,38.63
2017-11-07T17:08:55.803Z,41.77
2017-11-07T17:11:22.276Z,45.50
2017-11-07T17:13:48.769Z,41.40
2017-11-07T17:16:15.364Z,43.40
2017-11-07T17:18:41.904Z,44.83
2017-11-07T17:21:08.556Z,42.70
2017-11-07T17:23:35.283Z,44.00
2017-11-07T17:26:01.954Z,43.17
2017-11-07T17:28:28.459Z,44.23
2017-11-07T17:30:55.099Z,43.43
2017-11-07T17:33:21.733Z,43.93
2017-11-07T17:35:48.236Z,40.90
2017-11-07T17:38:14.807Z,43.70
2017-11-07T17:40:41.551Z,42.40
2017-11-07T17:43:08.122Z,40.20
2017-11-07T17:45:34.670Z,47.07
2017-11-07T17:48:01.144Z,44.97
2017-11-07T17:50:27.681Z,40.83
2017-11-07T17:52:54.116Z,42.40
2017-11-07T17:55:20.551Z,42.80
2017-11-07T17:57:46.985Z,41.13
2017-11-07T18:00:13.428Z,47.43
2017-11-07T18:02:39.792Z,43.70
2017-11-07T18:05:06.290Z,44.23
2017-11-07T18:07:32.725Z,41.90
2017-11-07T18:09:59.158Z,48.57
2017-11-07T18:12:25.592Z,43.83
2017-11-07T18:14:52.735Z,49.93
2017-11-07T18:17:19.162Z,49.33
2017-11-07T18:19:45.614Z,47.80
2017-11-07T18:22:12.070Z,47.57
2017-11-07T18:24:38.482Z,43.30
2017-11-07T18:27:04.917Z,46.50
2017-11-07T18:29:31.353Z,46.87
2017-11-07T18:31:58.546Z,45.17
2017-11-07T18:34:25.050Z,44.63
2017-11-07T18:36:51.497Z,43.57
2017-11-07T18:39:17.882Z,45.30
2017-11-07T18:41:44.324Z,44.50
2017-11-07T18:44:10.769Z,45.07
2017-11-07T18:46:37.325Z,43.03
2017-11-07T18:49:04.469Z,41.00
2017-11-07T18:51:30.904Z,41.57
2017-11-07T18:53:57.338Z,41.33
2017-11-07T18:56:23.773Z,38.80
2017-11-07T18:58:50.235Z,38.47
2017-11-07T19:01:16.641Z,40.93
2017-11-07T19:03:43.085Z,37.47
2017-11-07T19:06:10.341Z,40.80
2017-11-07T19:08:36.776Z,38.07
2017-11-07T19:11:03.212Z,40.00
2017-11-07T19:13:29.635Z,38.53
2017-11-07T19:15:56.077Z,40.20
2017-11-07T19:18:22.401Z,40.30
2017-11-07T19:20:48.844Z,39.10
2017-11-07T19:23:15.998Z,40.17
2017-11-07T19:25:42.391Z,41.60
2017-11-07T19:28:08.756Z,41.67
2017-11-07T19:30:35.189Z,39.10
2017-11-07T19:33:01.632Z,38.43
2017-11-07T19:35:28.061Z,38.10
2017-11-07T19:37:54.521Z,39.47
2017-11-07T19:40:21.542Z,38.50
2017-11-07T19:42:47.992Z,37.97
2017-11-07T19:45:14.411Z,38.37
2017-11-07T19:47:40.854Z,38.20
2017-11-07T19:50:07.280Z,37.60
2017-11-07T19:52:33.716Z,37.40
2017-11-07T19:55:00.153Z,36.87
2017-11-07T19:57:27.413Z,39.10
2017-11-07T19:59:53.838Z,39.37
2017-11-07T20:02:20.273Z,40.57
2017-11-07T20:04:46.708Z,38.03
2017-11-07T20:07:13.111Z,38.97
2017-11-07T20:09:39.577Z,37.47
2017-11-07T20:12:06.035Z,36.50
2017-11-07T20:14:33.168Z,38.40
2017-11-07T20:16:59.600Z,37.50
2017-11-07T20:19:26.033Z,37.20
2017-11-07T20:21:52.352Z,38.40
2017-11-07T20:24:18.807Z,37.07
2017-11-07T20:26:45.235Z,36.70
2017-11-07T20:29:11.674Z,37.20
2017-11-07T20:31:38.923Z,38.60
2017-11-07T20:34:05.328Z,36.77
2017-11-07T20:36:31.788Z,37.63
2017-11-07T20:38:58.236Z,36.70
2017-11-07T20:41:24.660Z,37.67
2017-11-07T20:43:51.097Z,35.97
2017-11-07T20:46:17.531Z,36.80
2017-11-07T20:48:44.614Z,37.43
2017-11-07T20:51:10.945Z,37.30
2017-11-07T20:53:37.346Z,37.13
2017-11-07T20:56:03.790Z,42.97
2017-11-07T20:58:30.216Z,39.97
2017-11-07T21:00:56.651Z,39.30
2017-11-07T21:03:23.085Z,38.13
2017-11-07T21:05:50.237Z,41.90
2017-11-07T21:08:16.671Z,38.57
2017-11-07T21:10:43.114Z,39.57
2017-11-07T21:13:09.540Z,38.60
2017-11-07T21:15:36.002Z,37.43
2017-11-07T21:18:02.419Z,37.87
2017-11-07T21:20:28.949Z,37.20
2017-11-07T21:22:56.109Z,40.43
2017-11-07T21:25:22.542Z,45.27
2017-11-07T21:27:49.080Z,44.40
2017-11-07T21:30:15.513Z,41.70
2017-11-07T21:32:41.939Z,42.67
2017-11-07T21:35:08.375Z,41.53
2017-11-07T21:37:34.816Z,41.53
2017-11-07T21:40:01.961Z,39.67
2017-11-07T21:42:28.403Z,42.97
2017-11-07T21:44:54.830Z,40.63
2017-11-07T21:47:21.283Z,44.30
2017-11-07T21:49:47.707Z,46.50
2017-11-07T21:52:14.114Z,41.70
2017-11-07T21:54:40.559Z,44.03
2017-11-07T21:57:07.618Z,44.30
2017-11-07T21:59:34.053Z,45.30
2017-11-07T22:02:00.487Z,45.43
2017-11-07T22:04:26.922Z,42.90
2017-11-07T22:06:53.356Z,43.33
2017-11-07T22:09:19.791Z,44.60
2017-11-07T22:11:46.225Z,44.60
2017-11-07T22:14:13.492Z,43.47
2017-11-07T22:16:39.913Z,38.30
2017-11-07T22:19:06.246Z,42.17
2017-11-07T22:21:32.691Z,43.77
2017-11-07T22:23:59.116Z,42.80
2017-11-07T22:26:25.559Z,45.07
2017-11-07T22:28:51.988Z,45.83
2017-11-07T22:31:19.239Z,48.70
2017-11-07T22:33:45.692Z,46.77
2017-11-07T22:36:12.043Z,43.00
2017-11-07T22:38:38.443Z,39.83
2017-11-07T22:41:04.859Z,39.90
2017-11-07T22:43:31.308Z,38.27
2017-11-07T22:45:57.643Z,36.83
2017-11-07T22:48:24.895Z,40.43
2017-11-07T22:50:51.262Z,39.20
2017-11-07T22:53:17.662Z,36.73
2017-11-07T22:55:44.070Z,35.07
2017-11-07T22:58:10.540Z,35.40
2017-11-07T23:00:36.966Z,35.57
2017-11-07T23:03:03.402Z,36.10
2017-11-07T23:05:30.451Z,34.00
2017-11-07T23:07:56.885Z,35.63
2017-11-07T23:10:23.320Z,35.53
2017-11-07T23:12:49.758Z,34.47
2017-11-07T23:15:16.194Z,32.87
2017-11-07T23:17:42.624Z,32.53
2017-11-07T23:20:09.059Z,33.03
2017-11-07T23:22:36.211Z,34.93
2017-11-07T23:25:02.652Z,33.60
2017-11-07T23:27:29.080Z,33.67
2017-11-07T23:29:55.523Z,35.00
2017-11-07T23:32:21.949Z,34.73
2017-11-07T23:34:48.391Z,33.20
2017-11-07T23:37:14.757Z,33.63
2017-11-07T23:39:42.102Z,32.33
2017-11-07T23:42:08.549Z,32.60
2017-11-07T23:44:34.941Z,31.17
2017-11-07T23:47:01.384Z,30.70
2017-11-07T23:49:27.819Z,30.80
2017-11-07T23:51:54.245Z,31.00
2017-11-07T23:54:20.681Z,31.13
2017-11-07T23:56:47.717Z,31.00
2017-11-07T23:59:14.168Z,29.90
